Time;durP1;ratioP1;P1;durP2;ratioP2;P2;SDS_P1;SDS_P2;PMS_P1;PMS_P2;Temp;Humidity;BMP_temperature;BMP_pressure;BME280_temperature;BME280_humidity;BME280_pressure;Samples;Min_cycle;Max_cycle;Signal;HPM_P1;HPM_P2
2022/09/25 00:00:50;;;;;;;4.45;4.05;;;11.00;99.90;;;;;;5090566;28;20382;-71
2022/09/25 00:03:17;;;;;;;4.72;4.20;;;11.10;99.90;;;;;;5088939;28;20427;-71
2022/09/25 00:05:44;;;;;;;4.85;4.20;;;11.10;99.90;;;;;;5091531;28;20435;-71
2022/09/25 00:08:10;;;;;;;4.07;3.67;;;11.10;99.90;;;;;;5073436;28;20903;-71
2022/09/25 00:10:48;;;;;;;5.75;3.53;;;11.20;99.90;;;;;;5089950;28;20532;-71
2022/09/25 00:13:15;;;;;;;4.40;4.00;;;11.20;99.90;;;;;;5088888;28;20402;-71
2022/09/25 00:15:50;;;;;;;5.63;4.30;;;11.20;99.90;;;;;;5087307;28;20401;-71
2022/09/25 00:19:48;;;;;;;4.40;4.00;;;11.40;99.90;;;;;;5088919;28;20384;-71
2022/09/25 00:21:03;;;;;;;5.78;4.20;;;11.20;99.90;;;;;;5090881;28;20756;-71
2022/09/25 00:23:28;;;;;;;4.63;4.22;;;11.30;99.90;;;;;;5061418;28;20399;-71
2022/09/25 00:25:55;;;;;;;5.63;4.10;;;11.20;99.90;;;;;;5071070;28;20384;-71
2022/09/25 00:28:20;;;;;;;4.10;3.70;;;11.20;99.90;;;;;;5076745;28;20463;-71
2022/09/25 00:30:46;;;;;;;4.85;4.15;;;11.20;99.90;;;;;;5086441;28;20413;-71
2022/09/25 00:33:11;;;;;;;6.40;4.10;;;11.10;99.90;;;;;;5086865;28;20828;-71
2022/09/25 00:35:37;;;;;;;4.30;3.90;;;11.20;99.90;;;;;;5091069;28;20495;-71
2022/09/25 00:38:02;;;;;;;4.00;3.70;;;11.20;99.90;;;;;;5091056;28;20451;-71
2022/09/25 00:40:28;;;;;;;4.35;4.05;;;11.10;99.90;;;;;;5073467;28;20460;-71
2022/09/25 00:42:53;;;;;;;4.53;4.13;;;11.10;99.90;;;;;;5084591;28;20405;-71
2022/09/25 00:45:20;;;;;;;4.13;3.73;;;11.10;99.90;;;;;;5090439;28;20467;-71
2022/09/25 00:47:57;;;;;;;4.43;4.03;;;11.10;99.90;;;;;;5090313;28;20389;-71
2022/09/25 00:50:45;;;;;;;4.10;3.70;;;11.10;99.90;;;;;;5091071;28;20459;-71
2022/09/25 00:53:22;;;;;;;4.83;4.33;;;11.20;99.90;;;;;;5089015;28;20778;-71
2022/09/25 00:55:48;;;;;;;4.10;3.80;;;11.20;99.90;;;;;;5087755;28;20398;-71
2022/09/25 00:58:18;;;;;;;4.18;3.83;;;11.30;99.90;;;;;;5089093;28;20936;-71
2022/09/25 01:00:44;;;;;;;4.20;3.80;;;11.30;99.90;;;;;;5090552;28;21643;-71
2022/09/25 01:03:10;;;;;;;4.68;3.75;;;11.40;99.90;;;;;;5091480;28;20374;-71
2022/09/25 01:05:39;;;;;;;4.30;3.40;;;11.30;99.90;;;;;;5089367;28;20426;-72
2022/09/25 01:08:09;;;;;;;4.30;3.90;;;11.40;99.90;;;;;;5090345;28;20467;-72
2022/09/25 01:10:35;;;;;;;4.80;3.60;;;11.40;99.90;;;;;;5070642;28;20441;-71
2022/09/25 01:13:01;;;;;;;4.60;3.70;;;11.40;99.90;;;;;;5074575;28;20373;-72
2022/09/25 01:16:01;;;;;;;3.60;3.30;;;11.40;99.90;;;;;;5085731;28;20412;-71
2022/09/25 01:18:42;;;;;;;4.00;3.70;;;11.40;99.90;;;;;;5082583;28;20401;-70
2022/09/25 01:21:21;;;;;;;3.90;3.50;;;11.40;99.90;;;;;;5087859;28;20417;-71
2022/09/25 01:24:11;;;;;;;4.05;3.47;;;11.40;99.90;;;;;;5090688;28;20494;-71
2022/09/25 01:26:54;;;;;;;3.97;3.58;;;11.40;99.90;;;;;;5091439;28;20432;-71
2022/09/25 01:29:39;;;;;;;4.00;3.70;;;11.30;99.90;;;;;;5089540;28;20417;-71
2022/09/25 01:32:12;;;;;;;5.05;4.13;;;11.40;99.90;;;;;;5091286;28;20409;-71
2022/09/25 01:35:10;;;;;;;4.00;3.70;;;11.50;99.90;;;;;;5090822;28;20890;-71
2022/09/25 01:37:51;;;;;;;3.85;3.50;;;11.50;99.90;;;;;;5070621;28;20387;-71
2022/09/25 01:40:33;;;;;;;4.15;3.75;;;11.40;99.90;;;;;;5086360;28;20412;-71
2022/09/25 01:43:15;;;;;;;4.93;3.60;;;11.40;99.90;;;;;;5090548;28;20393;-71
2022/09/25 01:45:48;;;;;;;4.00;3.55;;;11.40;99.90;;;;;;5093101;28;20378;-71
2022/09/25 01:48:17;;;;;;;6.10;3.97;;;11.30;99.90;;;;;;5077778;28;20393;-71
2022/09/25 01:50:54;;;;;;;4.00;3.60;;;11.30;99.90;;;;;;5091930;28;20468;-71
2022/09/25 01:53:31;;;;;;;3.90;3.60;;;11.30;99.90;;;;;;5093269;28;20867;-72
2022/09/25 01:58:39;;;;;;;4.13;3.72;;;11.20;99.90;;;;;;5112595;22;20514;-72
2022/09/25 02:01:15;;;;;;;3.80;3.50;;;11.30;99.90;;;;;;5089987;28;20432;-72
2022/09/25 02:03:47;;;;;;;3.97;3.30;;;11.30;99.90;;;;;;5073391;28;20502;-72
2022/09/25 02:06:18;;;;;;;3.95;3.65;;;11.30;99.90;;;;;;5090532;28;20444;-72
2022/09/25 02:09:16;;;;;;;4.00;3.60;;;11.40;99.90;;;;;;5071714;28;20491;-72
2022/09/25 02:11:47;;;;;;;3.70;3.43;;;11.40;99.90;;;;;;5066495;28;20403;-72
2022/09/25 02:14:28;;;;;;;4.07;3.78;;;11.50;99.90;;;;;;5073312;28;20416;-72
2022/09/25 02:16:57;;;;;;;4.07;3.78;;;11.50;99.90;;;;;;5053307;28;20400;-72
2022/09/25 02:22:13;;;;;;;3.93;3.63;;;11.50;99.90;;;;;;5072387;28;20440;-72
2022/09/25 02:25:02;;;;;;;3.80;3.50;;;11.60;99.90;;;;;;5073084;28;20794;-72
2022/09/25 02:27:28;;;;;;;3.90;3.50;;;11.60;99.90;;;;;;5071448;28;20513;-73
2022/09/25 02:29:55;;;;;;;3.80;3.50;;;11.60;99.90;;;;;;5071793;28;20896;-72
2022/09/25 02:32:25;;;;;;;3.63;3.30;;;11.60;99.90;;;;;;5054843;28;20384;-72
2022/09/25 02:34:51;;;;;;;3.70;3.40;;;11.40;99.90;;;;;;5073031;28;20375;-72
2022/09/25 02:37:17;;;;;;;3.92;3.63;;;11.50;99.90;;;;;;5072947;28;20395;-72
2022/09/25 02:39:54;;;;;;;4.10;3.70;;;11.50;99.90;;;;;;5072971;28;20445;-72
2022/09/25 02:42:39;;;;;;;3.70;3.30;;;11.60;99.90;;;;;;5070666;28;20411;-72
2022/09/25 02:45:18;;;;;;;4.57;3.40;;;11.60;99.90;;;;;;5072501;28;20795;-72
2022/09/25 02:48:30;;;;;;;3.55;3.25;;;11.60;99.90;;;;;;5072738;28;20403;-72
2022/09/25 02:51:19;;;;;;;3.80;3.40;;;11.40;99.90;;;;;;5070049;28;20917;-72
2022/09/25 02:53:54;;;;;;;4.57;3.72;;;11.30;99.90;;;;;;5052459;28;20461;-72
2022/09/25 02:56:32;;;;;;;4.28;3.30;;;11.30;99.90;;;;;;5052213;28;20382;-72
2022/09/25 02:59:09;;;;;;;3.90;3.60;;;11.40;99.90;;;;;;5052912;28;20468;-72
2022/09/25 03:01:38;;;;;;;4.40;3.70;;;11.40;99.90;;;;;;5071244;28;20384;-72
2022/09/25 03:04:05;;;;;;;4.00;3.60;;;11.40;99.90;;;;;;5072220;28;20883;-72
2022/09/25 03:06:31;;;;;;;3.40;3.10;;;11.50;99.90;;;;;;5072435;28;20426;-72
2022/09/25 03:08:59;;;;;;;3.85;3.40;;;11.50;99.90;;;;;;5071320;28;20912;-72
2022/09/25 03:11:28;;;;;;;3.70;3.40;;;11.40;99.90;;;;;;5070991;28;20407;-72
2022/09/25 03:13:59;;;;;;;3.67;3.38;;;11.50;99.90;;;;;;5070766;28;20438;-72
2022/09/25 03:16:48;;;;;;;3.75;3.45;;;11.40;99.90;;;;;;5069600;28;20414;-72
2022/09/25 03:19:15;;;;;;;3.30;3.10;;;11.50;99.90;;;;;;5071596;28;20897;-72
2022/09/25 03:21:40;;;;;;;4.20;3.30;;;11.50;99.90;;;;;;5071204;28;20768;-73
2022/09/25 03:24:06;;;;;;;3.50;3.20;;;11.40;99.90;;;;;;5061448;28;20491;-72
2022/09/25 03:26:32;;;;;;;3.80;3.30;;;11.40;99.90;;;;;;5054031;28;20427;-72
2022/09/25 03:29:01;;;;;;;3.75;3.30;;;11.40;99.90;;;;;;5070668;28;20396;-73
2022/09/25 03:31:28;;;;;;;4.00;3.60;;;11.30;99.90;;;;;;5071419;28;20400;-72
2022/09/25 03:33:54;;;;;;;3.03;2.83;;;11.40;99.90;;;;;;5052906;28;20403;-72
2022/09/25 03:36:22;;;;;;;3.50;3.20;;;11.40;99.90;;;;;;5069728;28;20516;-72
2022/09/25 03:38:49;;;;;;;3.80;3.03;;;11.40;99.90;;;;;;5070664;28;20427;-72
2022/09/25 03:41:19;;;;;;;3.43;3.10;;;11.30;99.90;;;;;;5071895;28;20387;-72
2022/09/25 03:43:46;;;;;;;4.03;3.63;;;11.30;99.90;;;;;;5052956;28;20415;-72
2022/09/25 03:46:13;;;;;;;3.40;3.10;;;11.30;99.90;;;;;;5071006;28;20851;-72
2022/09/25 03:48:40;;;;;;;3.40;3.10;;;11.40;99.90;;;;;;5068828;28;20419;-72
2022/09/25 03:51:06;;;;;;;3.92;3.53;;;11.30;99.90;;;;;;5071576;28;20815;-72
2022/09/25 03:53:32;;;;;;;3.70;3.40;;;11.40;99.90;;;;;;5071583;28;20392;-72
2022/09/25 03:56:04;;;;;;;4.40;3.72;;;11.60;99.90;;;;;;5070312;28;20414;-72
2022/09/25 03:58:30;;;;;;;3.50;3.20;;;11.50;99.90;;;;;;5071473;28;20383;-72
2022/09/25 04:00:56;;;;;;;3.45;3.15;;;11.50;99.90;;;;;;5069166;28;20410;-72
2022/09/25 04:03:23;;;;;;;3.60;3.30;;;11.70;99.90;;;;;;5069308;28;20498;-72
2022/09/25 04:05:49;;;;;;;3.72;3.42;;;11.70;99.90;;;;;;5060389;28;20423;-72
2022/09/25 04:08:15;;;;;;;3.30;3.00;;;11.60;99.90;;;;;;5050512;28;20901;-72
2022/09/25 04:10:40;;;;;;;4.22;3.45;;;11.60;99.90;;;;;;5071348;28;20835;-73
2022/09/25 04:13:08;;;;;;;3.40;3.10;;;11.70;99.90;;;;;;5071256;28;20461;-72
2022/09/25 04:15:33;;;;;;;3.70;3.40;;;11.70;99.90;;;;;;5052516;28;20457;-72
2022/09/25 04:17:59;;;;;;;3.63;3.33;;;11.60;99.90;;;;;;5069660;28;20414;-72
2022/09/25 04:20:25;;;;;;;3.60;3.30;;;11.60;99.90;;;;;;5069401;28;20404;-72
2022/09/25 04:22:50;;;;;;;3.50;3.20;;;11.70;99.90;;;;;;5064672;28;20394;-72
2022/09/25 04:25:16;;;;;;;3.43;3.13;;;11.80;99.90;;;;;;5067008;28;20410;-73
2022/09/25 04:27:45;;;;;;;3.20;2.90;;;11.80;99.90;;;;;;5070724;28;20437;-73
2022/09/25 04:30:10;;;;;;;4.20;2.95;;;11.80;99.90;;;;;;5071012;28;20400;-72
2022/09/25 04:35:20;;;;;;;3.40;3.10;;;11.70;99.90;;;;;;5069411;28;20406;-72
2022/09/25 04:37:46;;;;;;;3.30;3.00;;;11.80;99.90;;;;;;5070835;28;20478;-72
2022/09/25 04:40:11;;;;;;;3.50;3.10;;;11.70;99.90;;;;;;5068821;28;20403;-72
2022/09/25 04:42:37;;;;;;;3.53;3.23;;;11.80;99.90;;;;;;5069848;28;20411;-72
2022/09/25 04:45:03;;;;;;;5.20;3.10;;;11.90;99.90;;;;;;5052780;28;20392;-72
2022/09/25 04:47:31;;;;;;;3.10;2.90;;;11.90;99.90;;;;;;5070575;28;20383;-72
2022/09/25 04:49:57;;;;;;;3.75;3.25;;;11.80;99.90;;;;;;5070754;28;20424;-72
2022/09/25 04:52:22;;;;;;;4.07;2.78;;;11.80;99.90;;;;;;5069121;28;20407;-72
2022/09/25 04:54:48;;;;;;;3.50;3.20;;;11.80;99.90;;;;;;5070075;28;20874;-72
2022/09/25 04:57:15;;;;;;;3.40;3.10;;;11.80;99.90;;;;;;5070389;28;20469;-73
2022/09/25 04:59:41;;;;;;;3.70;3.40;;;11.80;99.90;;;;;;5070501;28;20474;-72
2022/09/25 05:02:06;;;;;;;3.40;3.10;;;11.80;99.90;;;;;;5068608;28;20410;-73
2022/09/25 05:04:32;;;;;;;3.50;3.10;;;11.80;99.90;;;;;;5070215;28;20388;-72
2022/09/25 05:06:57;;;;;;;3.50;3.20;;;11.90;99.90;;;;;;5070277;28;20401;-72
2022/09/25 05:09:23;;;;;;;3.83;3.30;;;11.90;99.90;;;;;;5070327;28;20411;-72
2022/09/25 05:11:48;;;;;;;3.70;3.30;;;11.90;99.90;;;;;;5070242;28;20399;-72
2022/09/25 05:14:14;;;;;;;3.97;3.53;;;11.90;99.90;;;;;;5068008;28;20781;-72
2022/09/25 05:16:39;;;;;;;3.33;3.03;;;11.80;99.90;;;;;;5070146;28;20390;-72
2022/09/25 05:19:05;;;;;;;2.88;2.67;;;11.80;99.90;;;;;;5067776;28;20408;-72
2022/09/25 05:21:31;;;;;;;3.60;3.30;;;11.80;99.90;;;;;;5069957;28;20746;-72
2022/09/25 05:23:57;;;;;;;3.95;3.55;;;11.80;99.90;;;;;;5050869;28;20407;-73
2022/09/25 05:26:23;;;;;;;3.88;3.58;;;11.80;99.90;;;;;;5070026;28;20889;-72
2022/09/25 05:28:49;;;;;;;4.03;3.63;;;11.70;99.90;;;;;;5069942;28;20387;-72
2022/09/25 05:31:15;;;;;;;3.70;3.20;;;11.70;99.90;;;;;;5070212;28;20371;-72
2022/09/25 05:33:42;;;;;;;3.80;3.40;;;11.70;99.90;;;;;;5069920;28;20901;-73
2022/09/25 05:36:09;;;;;;;3.60;3.30;;;11.80;99.90;;;;;;5069158;28;20399;-72
2022/09/25 05:38:37;;;;;;;3.40;3.10;;;11.70;99.90;;;;;;5069826;28;20884;-72
2022/09/25 05:41:08;;;;;;;2.97;2.67;;;11.80;99.90;;;;;;5070088;28;20419;-72
2022/09/25 05:43:38;;;;;;;3.40;3.10;;;11.90;99.90;;;;;;5069749;28;20930;-72
2022/09/25 05:46:04;;;;;;;3.00;2.80;;;11.80;99.90;;;;;;5069971;28;20379;-72
2022/09/25 05:48:30;;;;;;;3.63;3.20;;;11.90;99.90;;;;;;5070105;28;20400;-72
2022/09/25 05:50:56;;;;;;;3.20;3.00;;;11.80;99.90;;;;;;5065594;28;20412;-73
2022/09/25 05:53:23;;;;;;;3.50;3.20;;;11.90;99.90;;;;;;5067533;28;20396;-73
2022/09/25 05:55:59;;;;;;;4.20;3.40;;;11.80;99.90;;;;;;5069175;28;20400;-73
2022/09/25 05:58:34;;;;;;;3.67;3.37;;;11.90;99.90;;;;;;5068583;28;20487;-73
2022/09/25 06:01:02;;;;;;;3.05;2.75;;;12.00;99.90;;;;;;5069063;28;20384;-74
2022/09/25 06:03:28;;;;;;;3.10;2.80;;;11.90;99.90;;;;;;5069128;28;20497;-73
2022/09/25 06:05:58;;;;;;;3.20;2.90;;;11.90;99.90;;;;;;5069990;28;20383;-73
2022/09/25 06:08:24;;;;;;;3.35;3.05;;;11.90;99.90;;;;;;5067142;28;20474;-73
2022/09/25 06:10:52;;;;;;;3.35;3.05;;;11.80;99.90;;;;;;5068751;28;20504;-73
2022/09/25 06:13:18;;;;;;;3.40;3.10;;;11.90;99.90;;;;;;5066240;28;20411;-73
2022/09/25 06:15:43;;;;;;;4.10;3.20;;;12.00;99.90;;;;;;5068212;28;20502;-73
2022/09/25 06:18:09;;;;;;;5.00;2.90;;;11.90;99.90;;;;;;5069599;28;20437;-73
2022/09/25 06:20:35;;;;;;;3.40;3.10;;;11.90;99.90;;;;;;5066492;28;20486;-73
2022/09/25 06:23:01;;;;;;;4.35;3.38;;;11.90;99.90;;;;;;5068560;28;20388;-73
2022/09/25 06:25:31;;;;;;;3.70;3.40;;;11.80;99.90;;;;;;5067792;28;20774;-73
2022/09/25 06:27:59;;;;;;;4.10;3.70;;;11.60;99.90;;;;;;5063769;28;20449;-73
2022/09/25 06:30:29;;;;;;;3.90;3.60;;;11.70;99.90;;;;;;5068264;28;20411;-73
2022/09/25 06:32:56;;;;;;;4.55;3.80;;;11.70;99.90;;;;;;5051429;28;20403;-73
2022/09/25 06:35:22;;;;;;;4.30;3.90;;;11.50;99.90;;;;;;5072880;28;20432;-73
2022/09/25 06:37:47;;;;;;;4.30;3.87;;;11.40;99.90;;;;;;5066518;28;20444;-73
2022/09/25 06:40:13;;;;;;;4.00;3.70;;;11.50;99.90;;;;;;5083429;28;20484;-73
2022/09/25 06:42:38;;;;;;;4.32;3.92;;;11.60;99.90;;;;;;5069665;28;20457;-73
2022/09/25 06:45:04;;;;;;;4.55;4.15;;;11.70;99.90;;;;;;5072579;28;20394;-73
2022/09/25 06:47:30;;;;;;;4.07;3.78;;;11.70;99.90;;;;;;5069869;28;20420;-73
2022/09/25 06:49:55;;;;;;;4.77;4.37;;;11.80;99.90;;;;;;5073368;28;20418;-73
2022/09/25 06:52:21;;;;;;;4.50;4.10;;;11.90;99.90;;;;;;5072107;28;20762;-71
2022/09/25 06:54:46;;;;;;;4.40;4.00;;;11.90;99.90;;;;;;5071653;28;20403;-71
2022/09/25 06:57:12;;;;;;;4.97;4.57;;;11.90;99.90;;;;;;5065833;28;21197;-71
2022/09/25 06:59:38;;;;;;;5.30;4.80;;;11.90;99.90;;;;;;5075652;28;20417;-71
2022/09/25 07:04:50;;;;;;;7.03;5.93;;;12.00;99.90;;;;;;5068490;28;20472;-71
2022/09/25 07:07:19;;;;;;;5.33;4.60;;;12.00;99.90;;;;;;5067330;28;20938;-71
2022/09/25 07:09:47;;;;;;;4.65;4.25;;;12.10;99.90;;;;;;5061523;28;20858;-73
2022/09/25 07:12:13;;;;;;;5.35;4.85;;;12.20;99.90;;;;;;5078426;28;20390;-71
2022/09/25 07:14:40;;;;;;;5.22;4.82;;;12.20;99.90;;;;;;5081461;28;20385;-71
2022/09/25 07:17:06;;;;;;;5.75;4.70;;;12.30;99.90;;;;;;5070546;28;20378;-73
2022/09/25 07:19:32;;;;;;;5.50;4.38;;;12.40;99.90;;;;;;5065760;28;20404;-73
2022/09/25 07:21:58;;;;;;;4.70;4.30;;;12.50;99.90;;;;;;5067450;28;20467;-73
2022/09/25 07:24:24;;;;;;;6.33;4.70;;;12.40;99.90;;;;;;5051102;28;20480;-73
2022/09/25 07:26:51;;;;;;;4.90;4.50;;;12.50;99.90;;;;;;5047661;28;20529;-71
2022/09/25 07:29:17;;;;;;;5.57;5.07;;;12.40;99.90;;;;;;5067392;28;20411;-71
2022/09/25 07:31:42;;;;;;;5.15;4.65;;;12.40;99.90;;;;;;5066102;28;20483;-72
2022/09/25 07:34:08;;;;;;;5.40;4.90;;;12.50;99.90;;;;;;5067144;28;20676;-72
2022/09/25 07:36:35;;;;;;;5.40;4.90;;;12.50;99.90;;;;;;5069299;28;20903;-73
2022/09/25 07:39:01;;;;;;;5.40;4.90;;;12.50;99.90;;;;;;5048474;28;20406;-72
2022/09/25 07:41:26;;;;;;;5.50;4.90;;;12.60;99.90;;;;;;5066644;28;20396;-72
2022/09/25 07:43:55;;;;;;;6.50;5.40;;;12.60;99.90;;;;;;5063669;28;20411;-72
2022/09/25 07:46:20;;;;;;;6.60;5.47;;;12.70;99.90;;;;;;5049949;28;20402;-73
2022/09/25 07:48:53;;;;;;;7.80;6.00;;;12.70;99.90;;;;;;5062325;28;20393;-73
2022/09/25 07:51:23;;;;;;;6.72;6.10;;;12.80;99.90;;;;;;5062926;28;20419;-73
2022/09/25 07:53:49;;;;;;;7.53;6.80;;;12.80;99.90;;;;;;5066921;28;21130;-72
2022/09/25 07:56:41;;;;;;;6.50;5.70;;;12.90;99.90;;;;;;5064305;28;20490;-73
2022/09/25 07:59:07;;;;;;;7.90;6.20;;;13.00;99.90;;;;;;5039241;28;20826;-73
2022/09/25 08:01:32;;;;;;;8.07;6.43;;;13.10;99.90;;;;;;5063832;28;20400;-73
2022/09/25 08:03:58;;;;;;;11.70;8.77;;;13.00;99.90;;;;;;5045422;28;20487;-73
2022/09/25 08:06:24;;;;;;;10.77;8.27;;;12.80;99.90;;;;;;5067069;28;20456;-74
2022/09/25 08:08:49;;;;;;;13.30;9.10;;;12.70;99.90;;;;;;5063656;28;20404;-74
2022/09/25 08:11:16;;;;;;;13.03;8.70;;;12.90;99.90;;;;;;5067728;28;20416;-74
2022/09/25 08:13:42;;;;;;;12.68;8.50;;;13.00;99.90;;;;;;5064611;28;20404;-73
2022/09/25 08:16:14;;;;;;;12.50;8.43;;;13.00;99.90;;;;;;5063282;28;20395;-74
2022/09/25 08:18:41;;;;;;;11.57;8.18;;;13.10;99.90;;;;;;5063695;28;20395;-74
2022/09/25 08:21:08;;;;;;;10.90;7.40;;;13.10;99.90;;;;;;5064821;28;20816;-74
2022/09/25 08:23:33;;;;;;;10.25;8.15;;;13.10;99.90;;;;;;5068221;28;20478;-73
2022/09/25 08:26:00;;;;;;;14.43;9.00;;;12.90;99.90;;;;;;5068277;28;20542;-74
2022/09/25 08:28:26;;;;;;;9.77;7.28;;;13.10;99.90;;;;;;5050360;28;20416;-74
2022/09/25 08:30:52;;;;;;;9.82;7.60;;;13.10;99.90;;;;;;5066095;28;20414;-74
2022/09/25 08:33:19;;;;;;;10.15;7.60;;;13.10;99.90;;;;;;5067297;28;20400;-73
2022/09/25 08:35:54;;;;;;;10.67;7.57;;;13.10;99.90;;;;;;5067797;28;20403;-74
2022/09/25 08:38:20;;;;;;;8.90;6.80;;;13.40;99.90;;;;;;5064266;28;20783;-73
2022/09/25 08:40:56;;;;;;;12.37;7.97;;;13.50;99.90;;;;;;5068492;28;20399;-74
2022/09/25 08:43:24;;;;;;;9.07;7.55;;;13.50;99.90;;;;;;5063467;28;20427;-74
2022/09/25 08:49:01;;;;;;;9.10;7.97;;;13.80;99.90;;;;;;5065673;28;21007;-74
2022/09/25 08:51:29;;;;;;;10.27;8.00;;;13.90;99.90;;;;;;5068238;28;20504;-74
2022/09/25 08:53:56;;;;;;;12.10;7.90;;;14.20;99.90;;;;;;5065993;28;20407;-74
2022/09/25 08:56:24;;;;;;;8.73;7.80;;;14.00;99.90;;;;;;5066766;28;20532;-74
2022/09/25 08:59:10;;;;;;;9.53;7.30;;;14.20;99.90;;;;;;5067304;28;20970;-74
2022/09/25 09:01:51;;;;;;;7.10;6.10;;;14.00;99.90;;;;;;5060703;28;21560;-73
2022/09/25 09:04:37;;;;;;;7.68;6.82;;;14.20;99.90;;;;;;5063959;28;20391;-73
2022/09/25 09:07:19;;;;;;;8.15;6.80;;;14.40;99.90;;;;;;5064796;28;20870;-73
2022/09/25 09:09:57;;;;;;;12.50;10.10;;;14.20;99.90;;;;;;5067348;28;20727;-74
2022/09/25 09:12:33;;;;;;;11.85;9.52;;;14.30;99.90;;;;;;5069940;28;20495;-73
2022/09/25 09:15:24;;;;;;;12.93;10.27;;;14.10;99.90;;;;;;5069710;28;20464;-74
2022/09/25 09:17:49;;;;;;;17.02;10.52;;;14.20;99.90;;;;;;5052839;28;20457;-74
2022/09/25 09:20:18;;;;;;;13.10;9.93;;;14.00;99.90;;;;;;5063931;28;21175;-74
2022/09/25 09:22:51;;;;;;;13.90;11.00;;;14.00;99.90;;;;;;5060943;28;20759;-74
2022/09/25 09:25:49;;;;;;;15.40;11.38;;;14.10;99.90;;;;;;5078082;28;20465;-73
2022/09/25 09:28:33;;;;;;;12.43;9.85;;;14.20;99.90;;;;;;5068068;28;20403;-73
2022/09/25 09:31:16;;;;;;;13.77;9.50;;;14.30;99.90;;;;;;5050336;28;20407;-74
2022/09/25 09:34:18;;;;;;;12.80;10.00;;;14.40;99.90;;;;;;5065948;28;20407;-73
2022/09/25 09:37:30;;;;;;;12.85;9.40;;;14.60;99.90;;;;;;5065818;28;20462;-73
2022/09/25 09:40:17;;;;;;;11.68;9.45;;;14.70;99.90;;;;;;5068001;28;20399;-73
2022/09/25 09:43:02;;;;;;;10.48;9.40;;;14.70;99.90;;;;;;5067931;28;20433;-73
2022/09/25 09:46:12;;;;;;;10.27;8.00;;;14.90;99.90;;;;;;5051180;28;20796;-73
2022/09/25 09:49:01;;;;;;;8.85;7.35;;;14.90;99.90;;;;;;4988928;28;20844;-73
2022/09/25 09:51:35;;;;;;;9.75;7.22;;;14.70;99.90;;;;;;4982966;28;20442;-72
2022/09/25 09:54:42;;;;;;;9.73;7.82;;;14.60;99.90;;;;;;5040824;28;20409;-72
2022/09/25 09:57:24;;;;;;;8.35;7.28;;;14.80;99.90;;;;;;5068243;28;20406;-72
2022/09/25 09:59:56;;;;;;;9.60;7.40;;;14.50;99.90;;;;;;5063589;28;20476;-72
2022/09/25 10:02:30;;;;;;;8.70;7.15;;;14.60;99.90;;;;;;5061097;28;20467;-72
2022/09/25 10:04:58;;;;;;;7.85;7.05;;;14.70;99.90;;;;;;5064871;28;20404;-72
2022/09/25 10:07:27;;;;;;;8.70;7.80;;;14.80;99.90;;;;;;5070011;28;20934;-72
2022/09/25 10:09:54;;;;;;;8.32;6.97;;;15.00;99.90;;;;;;5071564;28;20411;-72
2022/09/25 10:12:32;;;;;;;7.38;6.15;;;15.20;99.90;;;;;;5049817;28;20428;-72
2022/09/25 10:15:02;;;;;;;9.40;7.45;;;15.20;99.90;;;;;;5072954;28;20440;-72
2022/09/25 10:17:29;;;;;;;9.68;7.30;;;15.20;99.90;;;;;;5072999;28;20466;-72
2022/09/25 10:20:11;;;;;;;7.90;7.10;;;15.00;99.90;;;;;;5071675;28;20403;-72
2022/09/25 10:22:41;;;;;;;9.77;7.75;;;15.40;99.90;;;;;;5050256;28;20464;-72
2022/09/25 10:25:07;;;;;;;9.20;7.68;;;15.60;99.90;;;;;;5076043;28;20388;-72
2022/09/25 10:27:44;;;;;;;8.77;6.60;;;15.90;99.90;;;;;;5072772;28;20390;-72
2022/09/25 10:30:10;;;;;;;7.53;6.82;;;15.90;99.90;;;;;;5075627;28;20443;-72
2022/09/25 10:32:45;;;;;;;8.10;6.90;;;15.90;99.90;;;;;;5084843;28;20471;-73
2022/09/25 10:35:22;;;;;;;8.30;7.30;;;15.90;99.90;;;;;;5074917;28;20458;-72
2022/09/25 10:37:52;;;;;;;9.23;6.88;;;15.70;99.90;;;;;;5073456;28;20754;-72
2022/09/25 10:40:35;;;;;;;6.35;5.45;;;16.10;99.90;;;;;;5083990;28;20394;-72
2022/09/25 10:43:19;;;;;;;5.60;5.10;;;15.90;99.90;;;;;;5081826;28;20383;-72
2022/09/25 10:45:45;;;;;;;6.22;4.05;;;16.10;99.90;;;;;;5073855;28;20406;-73
2022/09/25 10:51:20;;;;;;;5.10;4.60;;;16.10;99.90;;;;;;5071025;28;20995;-72
2022/09/25 10:53:50;;;;;;;6.72;4.78;;;16.30;99.90;;;;;;5070462;28;20418;-70
2022/09/25 10:56:31;;;;;;;5.30;4.75;;;16.20;99.90;;;;;;5075865;28;20441;-72
2022/09/25 10:59:00;;;;;;;5.93;5.00;;;16.40;99.90;;;;;;5075105;28;20394;-72
2022/09/25 11:01:34;;;;;;;5.10;4.60;;;16.50;99.90;;;;;;5080822;28;20382;-71
2022/09/25 11:04:02;;;;;;;5.10;4.60;;;16.40;99.90;;;;;;5078233;28;20400;-72
2022/09/25 11:06:33;;;;;;;4.60;4.20;;;16.50;99.90;;;;;;5066955;28;20415;-72
2022/09/25 11:09:18;;;;;;;5.63;5.03;;;16.50;99.90;;;;;;5072380;28;20949;-72
2022/09/25 11:11:45;;;;;;;6.00;4.82;;;16.50;99.90;;;;;;5071752;28;20904;-72
2022/09/25 11:14:31;;;;;;;6.20;4.70;;;16.60;99.90;;;;;;5085192;28;20879;-71
2022/09/25 11:16:58;;;;;;;5.00;4.50;;;16.20;99.90;;;;;;5056892;28;20388;-72
2022/09/25 11:19:36;;;;;;;5.07;4.57;;;16.20;99.90;;;;;;5068719;28;20757;-72
2022/09/25 11:22:08;;;;;;;4.95;4.45;;;16.60;99.90;;;;;;5071341;28;20478;-71
2022/09/25 11:24:49;;;;;;;7.03;4.97;;;16.40;99.90;;;;;;5052532;28;21051;-72
2022/09/25 11:27:44;;;;;;;7.50;4.70;;;16.30;99.90;;;;;;5052701;28;20952;-72
2022/09/25 11:30:14;;;;;;;6.03;4.50;;;16.50;99.90;;;;;;5057273;28;20419;-72
2022/09/25 11:32:59;;;;;;;4.95;4.50;;;16.40;99.90;;;;;;5072256;28;20753;-72
2022/09/25 11:35:49;;;;;;;6.07;5.20;;;16.50;99.90;;;;;;5072336;28;20454;-72
2022/09/25 11:42:00;;;;;;;7.40;4.60;;;16.30;99.90;;;;;;5072467;28;20883;-72
2022/09/25 11:44:44;;;;;;;5.30;4.80;;;16.60;99.90;;;;;;5050585;28;20484;-71
2022/09/25 11:47:28;;;;;;;6.32;4.60;;;16.90;99.90;;;;;;5052067;28;20386;-72
2022/09/25 11:49:57;;;;;;;5.38;4.70;;;16.80;99.90;;;;;;5034333;28;20833;-72
2022/09/25 11:52:50;;;;;;;6.17;4.83;;;16.70;99.90;;;;;;5067203;28;20388;-73
2022/09/25 11:55:48;;;;;;;6.73;5.10;;;16.60;99.90;;;;;;5069532;28;20406;-72
2022/09/25 11:58:29;;;;;;;5.63;5.13;;;16.60;99.90;;;;;;5029739;28;20775;-72
2022/09/25 12:01:22;;;;;;;4.80;4.40;;;16.60;99.90;;;;;;5051671;28;20393;-72
2022/09/25 12:04:08;;;;;;;6.45;4.75;;;16.70;99.90;;;;;;5051359;28;20385;-71
2022/09/25 12:06:54;;;;;;;5.70;4.60;;;16.60;99.90;;;;;;5051551;28;20799;-69
2022/09/25 12:10:02;;;;;;;4.80;4.40;;;16.70;99.90;;;;;;5067749;28;20474;-70
2022/09/25 12:12:46;;;;;;;5.80;4.53;;;16.70;99.90;;;;;;5071103;28;20396;-71
2022/09/25 12:15:34;;;;;;;5.07;4.50;;;16.90;99.90;;;;;;5071586;28;20430;-71
2022/09/25 12:18:03;;;;;;;4.60;4.15;;;17.10;99.90;;;;;;5071131;28;20372;-70
2022/09/25 12:20:48;;;;;;;5.35;4.65;;;17.00;99.90;;;;;;5070459;28;20384;-70
2022/09/25 12:23:35;;;;;;;5.00;4.50;;;17.00;99.90;;;;;;5069967;28;20392;-71
2022/09/25 12:26:31;;;;;;;7.15;4.88;;;16.90;99.90;;;;;;5071296;28;20376;-72
2022/09/25 12:29:13;;;;;;;5.30;4.80;;;16.80;99.90;;;;;;5070317;28;20909;-72
2022/09/25 12:32:05;;;;;;;4.40;3.70;;;16.70;99.90;;;;;;5070845;28;20394;-73
2022/09/25 12:35:06;;;;;;;6.30;4.00;;;16.70;99.90;;;;;;5070622;28;20901;-73
2022/09/25 12:37:51;;;;;;;5.55;4.68;;;16.80;99.90;;;;;;5070886;28;20386;-72
2022/09/25 12:40:20;;;;;;;5.20;4.32;;;16.90;99.90;;;;;;5069885;28;20893;-72
2022/09/25 12:43:08;;;;;;;6.23;4.50;;;16.90;99.90;;;;;;5070220;28;20395;-72
2022/09/25 12:45:59;;;;;;;5.93;4.30;;;16.80;99.90;;;;;;5039321;28;20387;-73
2022/09/25 12:48:42;;;;;;;5.18;3.80;;;16.90;99.90;;;;;;5070676;28;20387;-73
2022/09/25 12:51:15;;;;;;;4.90;4.10;;;16.80;99.90;;;;;;5070566;28;20404;-73
2022/09/25 12:53:56;;;;;;;5.60;3.90;;;16.70;99.90;;;;;;5070414;28;20738;-71
2022/09/25 12:56:26;;;;;;;6.03;4.22;;;16.70;99.90;;;;;;5070525;28;20498;-73
2022/09/25 12:59:00;;;;;;;4.38;3.97;;;16.50;99.90;;;;;;5070647;28;20388;-73
2022/09/25 13:01:35;;;;;;;4.57;4.05;;;16.50;99.90;;;;;;5052261;28;20936;-73
2022/09/25 13:04:18;;;;;;;4.72;3.78;;;16.00;99.90;;;;;;5069698;28;20396;-73
2022/09/25 13:06:51;;;;;;;5.50;4.20;;;15.90;99.90;;;;;;5069574;28;20384;-73
2022/09/25 13:09:31;;;;;;;5.97;4.10;;;15.80;99.90;;;;;;5070412;28;20834;-73
2022/09/25 13:12:18;;;;;;;5.65;4.30;;;15.80;99.90;;;;;;5070355;28;20384;-73
2022/09/25 13:14:53;;;;;;;4.43;3.93;;;15.80;99.90;;;;;;5052179;28;20383;-73
2022/09/25 13:17:19;;;;;;;4.68;3.92;;;15.80;99.90;;;;;;5070128;28;20402;-73
2022/09/25 13:19:44;;;;;;;6.35;4.90;;;15.80;99.90;;;;;;5069829;28;20395;-73
2022/09/25 13:22:20;;;;;;;6.85;5.18;;;15.70;99.90;;;;;;5069652;28;20456;-73
2022/09/25 13:25:14;;;;;;;5.00;4.60;;;15.60;99.90;;;;;;5057353;28;20388;-71
2022/09/25 13:27:44;;;;;;;5.90;4.60;;;15.70;99.90;;;;;;5044509;28;20392;-72
2022/09/25 13:30:24;;;;;;;5.70;4.70;;;15.60;99.90;;;;;;5052796;28;20969;-72
2022/09/25 13:33:01;;;;;;;6.60;5.30;;;15.60;99.90;;;;;;5061012;28;21383;-73
2022/09/25 13:35:29;;;;;;;6.53;5.72;;;15.50;99.90;;;;;;5068097;28;20886;-72